Weather observations for the past three days for
Montevideo-Chippewa County Airport
Imperial (Metric)
Date Time (cdt) Wind (mph) Vis. (mi.) Weather Sky Cond. Temperature (ºF) Relative Humidity Wind Chill (°F) Heat Index (°F) Pressure Precipitation (in)
Air Dwpt 6 hour altimeter (in) sea level (mb) 1 hr 3 hr 6 hr
Max. Min.
04 19:35 E 3 7.00 Fair CLR 78.8 71.6 79% 82 29.93 0.0
04 19:15 Calm 10.00 Fair CLR 80.6 71.6 74% 85 29.93 0.0
04 18:55 Calm 10.00 Fair CLR 82.4 71.6 70% 87 29.93 0.0
04 18:35 E 5 10.00 Fair CLR 82.4 71.6 70% 87 29.93 0.0
04 18:15 E 7 10.00 Fair CLR 82.4 71.6 70% 87 29.93 0.0
04 17:55 E 7 10.00 Fair CLR 82.4 71.6 70% 87 29.93 0.0
04 17:35 E 7 10.00 Fair CLR 82.4 71.6 70% 87 29.93 0.0
04 17:15 E 6 10.00 Fair CLR 82.4 71.6 70% 87 29.93 0.0
04 16:55 E 5 10.00 Fair CLR 82.4 69.8 66% 86 29.93 0.0
04 16:35 E 7 10.00 Fair CLR 82.4 71.6 70% 87 29.93 0.0
04 16:15 NE 5 10.00 Fair CLR 82.4 71.6 70% 87 29.93 0.0
04 15:55 NE 5 10.00 Fair CLR 82.4 71.6 70% 87 29.93 0.0
04 15:35 N 5 10.00 Fair CLR 80.6 71.6 74% 85 29.93 0.0
04 15:15 NE 5 10.00 Fair CLR 80.6 71.6 74% 85 29.93 0.0
04 14:55 NE 6 10.00 Partly Cloudy SCT003 SCT016 80.6 71.6 74% 85 29.93 0.0
04 14:35 NE 3 10.00 Mostly Cloudy SCT003 BKN016 78.8 71.6 79% 82 29.93 0.0
04 14:15 N 3 10.00 Overcast SCT003 OVC014 77 69.8 79% 79 29.94 0.0
04 13:55 NE 3 7.00 Overcast SCT003 OVC012 75.2 69.8 83% 75 29.94 0.0
04 13:35 NE 5 10.00 Overcast OVC010 75.2 69.8 83% 75 29.94 0.0
04 13:15 E 8 10.00 Overcast OVC008 73.4 69.8 89% 29.94 0.0
04 12:55 NE 9 10.00 Overcast OVC008 73.4 69.8 89% 29.94 0.0
04 12:35 N 5 10.00 Overcast OVC008 73.4 69.8 89% 29.94 0.0
04 12:15 N 7 10.00 Overcast OVC006 73.4 71.6 94% 29.93 0.0
04 11:55 N 6 10.00 Overcast OVC006 71.6 71.6 100% 29.93 0.0
04 11:35 NE 5 10.00 Overcast OVC004 71.6 71.6 100% 29.93 0.0
04 11:15 N 8 7.00 Overcast OVC002 69.8 69.8 100% 29.93 0.0
04 10:55 N 5 1.25 Fog/Mist OVC002 69.8 69.8 100% 29.93 0.0
04 10:35 N 5 0.50 Fog OVC002 69.8 69.8 100% 29.92 0.0
04 10:15 N 3 0.50 Fog OVC002 69.8 69.8 100% 29.92 0.0
04 09:55 N 5 0.25 Fog OVC002 69.8 69.8 100% 29.91 0.0
04 09:35 N 6 0.25 Fog OVC002 69.8 69.8 100% 29.9 0.0
04 09:15 NW 5 0.25 Fog OVC002 68 68 100% 29.9 0.0
04 08:55 NW 7 0.25 Fog OVC002 68 68 100% 29.9 0.0
04 08:35 NW 3 0.15 Fog OVC002 68 68 100% 29.89 0.0
04 08:15 NW 5 0.15 Fog OVC002 66.2 66.2 100% 29.88 0.0
04 07:55 N 5 0.15 Fog OVC002 66.2 66.2 100% 29.88 0.0
04 07:35 N 6 0.15 Fog OVC002 66.2 66.2 100% 29.87 0.0
04 07:15 N 5 0.25 Fog OVC002 66.2 66.2 100% 29.86 0.0
04 06:55 Calm 0.25 Fog OVC002 66.2 66.2 100% 29.86 0.0
04 06:35 Calm 0.25 Fog OVC002 66.2 66.2 100% 29.85 0.0
04 06:15 N 8 0.25 Fog OVC002 66.2 66.2 100% 29.84 0.0
04 05:55 NW 5 0.75 Fog/Mist OVC004 66.2 66.2 100% 29.84 0.0
04 05:35 NW 8 7.00 Mostly Cloudy BKN004 68 66.2 94% 29.84 0.0
04 05:15 NW 8 10.00 Fair CLR 68 66.2 94% 29.83 0.0
04 04:55 NW 9 10.00 Fair CLR 68 66.2 94% 29.83 0.0
04 04:35 NW 8 10.00 Fair CLR 69.8 66.2 88% 29.83 0.0
04 04:15 NW 8 10.00 Fair CLR 69.8 66.2 88% 29.82 0.0
04 03:55 NW 9 10.00 Fair CLR 71.6 68 88% 29.82 0.0
04 03:35 W 7 10.00 Fair CLR 73.4 69.8 89% 29.81 0.0
04 03:15 W 5 10.00 Fair CLR 73.4 69.8 89% 29.8 0.0
04 02:55 SW 5 10.00 Fair CLR 73.4 69.8 89% 29.79 0.0
04 02:35 SW 3 10.00 Fair CLR 71.6 69.8 94% 29.79 0.0
04 02:15 SW 3 10.00 Fair CLR 73.4 69.8 89% 29.79 0.0
04 01:55 S 3 10.00 Fair CLR 73.4 69.8 89% 29.79 0.0
04 01:15 S 6 10.00 Fair CLR 73.4 69.8 89% 29.79 0.0
04 00:55 S 6 10.00 Fair CLR 75.2 69.8 83% 75 29.79 0.0
04 00:35 S 6 10.00 Fair CLR 75.2 69.8 83% 75 29.78 0.0
04 00:15 S 5 10.00 Fair CLR 75.2 69.8 83% 75 29.78 0.0
03 23:55 S 3 10.00 Fair CLR 75.2 69.8 83% 75 29.78 0.0
03 23:35 S 3 10.00 Fair CLR 77 69.8 79% 79 29.77 0.0
03 23:15 S 5 10.00 Fair CLR 78.8 69.8 74% 81 29.77 0.0
03 22:55 S 5 10.00 Fair CLR 78.8 69.8 74% 81 29.77 0.0
03 22:35 S 5 10.00 Fair CLR 78.8 69.8 74% 81 29.77 0.0
03 22:15 S 5 10.00 Fair CLR 78.8 69.8 74% 81 29.77 0.0
03 21:55 S 3 10.00 Fair CLR 80.6 68 66% 83 29.76 0.0
03 21:35 S 3 10.00 Fair CLR 80.6 68 66% 83 29.76 0.0
03 21:15 S 3 10.00 Fair CLR 80.6 68 66% 83 29.76 0.0
03 20:55 SW 5 10.00 Fair CLR 80.6 69.8 70% 84 29.75 0.0
03 20:35 SW 6 10.00 Fair CLR 82.4 69.8 66% 86 29.74 0.0
03 20:15 SW 6 10.00 Fair CLR 84.2 69.8 62% 88 29.73 0.0
03 19:55 S 6 10.00 Fair CLR 86 71.6 62% 92 29.72 0.0
03 19:35 S 5 10.00 Fair CLR 87.8 73.4 62% 96 29.72 0.0
03 19:15 S 6 10.00 Fair CLR 89.6 73.4 59% 98 29.72 0.0
03 18:55 S 3 10.00 Fair CLR 89.6 73.4 59% 98 29.72 0.0
03 18:35 S 3 10.00 Fair CLR 91.4 71.6 52% 99 29.72 0.0
03 18:15 S 5 10.00 Fair CLR 91.4 71.6 52% 99 29.71 0.0
03 17:55 S 8 10.00 Fair CLR 91.4 71.6 52% 99 29.71 0.0
03 17:35 S 7 10.00 Fair CLR 91.4 71.6 52% 99 29.71 0.0
03 17:15 S 6 10.00 Fair CLR 91.4 71.6 52% 99 29.7 0.0
03 16:55 S 8 10.00 Fair CLR 91.4 69.8 49% 97 29.69 0.0
03 16:35 S 9 10.00 Fair CLR 91.4 69.8 49% 97 29.69 0.0
03 16:15 S 8 10.00 Fair CLR 91.4 69.8 49% 97 29.69 0.0
03 15:55 S 7 10.00 Fair CLR 91.4 69.8 49% 97 29.7 0.0
03 15:35 S 8 10.00 Fair CLR 91.4 69.8 49% 97 29.71 0.0
03 15:15 S 12 G 16 10.00 Fair CLR 89.6 69.8 52% 95 29.71 0.0
03 14:55 S 9 10.00 Fair CLR 89.6 69.8 52% 95 29.72 0.0
03 14:35 S 7 10.00 Fair CLR 89.6 71.6 55% 96 29.72 0.0
03 14:15 S 8 10.00 Fair CLR 89.6 69.8 52% 95 29.71 0.0
03 13:35 SE 3 10.00 Fair CLR 86 69.8 59% 91 29.72 0.0
03 13:15 S 5 10.00 Fair CLR 86 71.6 62% 92 29.74 0.0
03 12:55 Calm 10.00 Light Rain CLR 82.4 71.6 70% 87 29.76 0.0
03 12:35 SE 5 10.00 Fair CLR 82.4 69.8 66% 86 29.75 0.0
03 12:15 S 5 10.00 Thunderstorm CLR 82.4 69.8 66% 86 29.77 0.0
03 11:55 S 8 10.00 Fair CLR 82.4 69.8 66% 86 29.77 0.0
03 11:35 S 8 10.00 Fair CLR 84.2 69.8 62% 88 29.77 0.0
03 11:15 S 8 10.00 Fair CLR 82.4 69.8 66% 86 29.76 0.0
03 10:55 S 7 10.00 Fair CLR 82.4 68 62% 85 29.76 0.0
03 10:35 S 8 10.00 Fair CLR 80.6 68 66% 83 29.76 0.0
03 10:15 S 7 10.00 Fair CLR 80.6 68 66% 83 29.77 0.0
03 09:55 S 7 10.00 Fair CLR 78.8 66.2 65% 81 29.77 0.0
03 09:35 SE 12 10.00 Fair CLR 77 66.2 69% 79 29.77 0.0
03 09:15 SE 10 10.00 Fair CLR 75.2 66.2 74% 77 29.76 0.0
03 08:55 SE 9 10.00 Fair CLR 75.2 68 78% 76 29.77 0.0
03 08:35 SE 9 10.00 Fair CLR 73.4 69.8 89% 29.77 0.0
03 08:15 E 6 10.00 Fair CLR 71.6 69.8 94% 29.78 0.0
03 07:55 E 7 10.00 Fair CLR 71.6 68 88% 29.78 0.0
03 07:35 SE 7 10.00 Fair CLR 69.8 69.8 100% 29.78 0.0
03 07:15 SE 8 7.00 Fair CLR 69.8 68 94% 29.78 0.0
03 06:55 SE 6 7.00 Fair CLR 68 68 100% 29.78 0.0
03 06:35 SE 6 7.00 Fair CLR 69.8 68 94% 29.78 0.0
03 06:15 E 5 7.00 Fair CLR 68 68 100% 29.77 0.0
03 05:55 SE 6 7.00 Fair CLR 68 68 100% 29.77 0.0
03 05:35 SE 7 10.00 Fair CLR 68 66.2 94% 29.77 0.0
03 05:15 E 7 10.00 Fair CLR 68 66.2 94% 29.77 0.0
03 04:55 E 5 10.00 Fair CLR 68 66.2 94% 29.78 0.0
03 04:35 E 8 10.00 Fair CLR 68 66.2 94% 29.78 0.0
03 04:15 E 5 10.00 Fair CLR 69.8 66.2 88% 29.8 0.0
03 03:55 E 8 10.00 Fair CLR 69.8 66.2 88% 29.79 0.0
03 03:35 SE 8 10.00 Fair CLR 69.8 66.2 88% 29.8 0.0
03 03:15 SE 6 10.00 Fair CLR 69.8 66.2 88% 29.8 0.0
03 02:55 SE 8 10.00 Fair CLR 69.8 66.2 88% 29.8 0.0
03 02:35 SE 7 10.00 Fair CLR 69.8 66.2 88% 29.81 0.0
03 02:15 SE 10 10.00 Fair CLR 69.8 66.2 88% 29.8 0.0
03 01:55 SE 7 10.00 Fair CLR 69.8 66.2 88% 29.81 0.0
03 01:35 SE 8 10.00 Fair CLR 71.6 68 88% 29.82 0.0
03 01:15 E 6 10.00 Fair CLR 69.8 68 94% 29.83 0.0
03 00:55 E 6 10.00 Fair CLR 69.8 68 94% 29.83 0.0
03 00:35 E 5 10.00 Fair CLR 69.8 66.2 88% 29.83 0.0
02 23:55 E 6 10.00 Fair CLR 69.8 68 94% 29.83 0.0
02 23:35 E 6 10.00 Fair CLR 71.6 68 88% 29.83 0.0
02 23:15 E 5 10.00 Fair CLR 71.6 69.8 94% 29.83 0.0
02 22:55 E 6 10.00 Fair CLR 71.6 69.8 94% 29.84 0.0
02 22:35 E 6 10.00 Fair CLR 71.6 69.8 94% 29.84 0.0
02 22:15 E 7 10.00 Fair CLR 73.4 69.8 89% 29.84 0.0
02 21:55 E 7 10.00 Fair CLR 73.4 69.8 89% 29.85 0.0
02 21:35 E 7 10.00 Fair CLR 73.4 69.8 89% 29.85 0.0
02 21:15 E 7 10.00 Fair CLR 73.4 69.8 89% 29.84 0.0
02 20:55 E 5 10.00 Fair CLR 75.2 69.8 83% 75 29.84 0.0
02 20:35 E 7 10.00 Fair CLR 75.2 69.8 83% 75 29.83 0.0
02 20:15 E 6 10.00 Fair CLR 75.2 69.8 83% 75 29.83 0.0
02 19:55 E 7 10.00 Fair CLR 78.8 69.8 74% 81 29.83 0.0
02 19:35 E 7 10.00 Fair CLR 78.8 69.8 74% 81 29.83 0.0
02 19:15 E 7 10.00 Fair CLR 80.6 69.8 70% 84 29.83 0.0
02 18:55 E 9 10.00 Fair CLR 82.4 69.8 66% 86 29.83 0.0
02 18:35 E 10 10.00 Fair CLR 82.4 69.8 66% 86 29.83 0.0
02 18:15 E 13 10.00 Fair CLR 82.4 69.8 66% 86 29.83 0.0
02 17:55 E 10 10.00 Fair CLR 84.2 69.8 62% 88 29.83 0.0
02 17:35 E 10 10.00 Fair CLR 84.2 69.8 62% 88 29.83 0.0
02 17:15 E 12 10.00 Fair CLR 84.2 69.8 62% 88 29.83 0.0
02 16:55 E 9 10.00 Fair CLR 84.2 69.8 62% 88 29.84 0.0
02 16:35 E 10 10.00 Fair CLR 84.2 69.8 62% 88 29.84 0.0
02 16:15 E 12 10.00 Fair CLR 84.2 69.8 62% 88 29.85 0.0
02 15:55 E 13 10.00 Fair CLR 84.2 69.8 62% 88 29.85 0.0
02 15:35 E 8 10.00 Fair CLR 84.2 69.8 62% 88 29.86 0.0
02 15:15 E 10 10.00 Fair CLR 84.2 68 58% 87 29.86 0.0
02 14:55 E 9 10.00 Fair CLR 82.4 69.8 66% 86 29.86 0.0
02 14:35 E 10 10.00 Fair CLR 82.4 68 62% 85 29.87 0.0
02 14:15 E 7 10.00 Fair CLR 82.4 69.8 66% 86 29.88 0.0
02 13:55 E 8 10.00 Fair CLR 82.4 68 62% 85 29.88 0.0
02 13:35 E 12 7.00 Fair CLR 82.4 69.8 66% 86 29.89 0.0
02 13:15 E 9 10.00 Fair CLR 82.4 68 62% 85 29.89 0.0
02 12:55 E 9 10.00 Fair CLR 80.6 66.2 62% 83 29.9 0.0
02 12:35 E 10 10.00 Fair CLR 80.6 66.2 62% 83 29.91 0.0
02 12:15 SE 9 10.00 Fair CLR 80.6 66.2 62% 83 29.91 0.0
02 11:55 SE 8 10.00 Fair CLR 80.6 66.2 62% 83 29.91 0.0
02 11:35 E 8 10.00 Fair CLR 78.8 66.2 65% 81 29.91 0.0
02 11:15 E 9 10.00 Fair CLR 77 66.2 69% 79 29.89 0.0
02 10:55 E 8 10.00 Fair CLR 75.2 66.2 74% 77 29.9 0.0
02 10:35 E 5 10.00 Fair CLR 73.4 66.2 78% 29.91 0.0
02 10:15 NE 3 10.00 Fair CLR 73.4 64.4 74% 29.91 0.0
02 09:55 NE 3 10.00 Fair CLR 71.6 64.4 78% 29.91 0.0
02 09:35 Calm 10.00 Fair CLR 71.6 62.6 73% 29.93 0.0
02 09:15 E 6 10.00 Fair CLR 69.8 62.6 78% 29.91 0.0
02 08:55 Calm 10.00 Fair CLR 69.8 62.6 78% 29.93 0.0
02 08:35 Calm 10.00 Fair CLR 66.2 62.6 88% 29.93 0.0
02 08:15 E 5 10.00 Fair CLR 66.2 62.6 88% 29.92 0.0
02 07:35 NE 5 10.00 Fair CLR 64.4 60.8 88% 29.92 0.0
02 07:15 NE 6 10.00 Fair CLR 62.6 60.8 94% 29.92 0.0
02 06:55 NE 3 10.00 Fair CLR 62.6 60.8 94% 29.92 0.0
02 06:35 NE 3 10.00 Fair CLR 62.6 60.8 94% 29.91 0.0
02 06:15 N 5 10.00 Fair CLR 62.6 60.8 94% 29.91 0.0
02 05:55 NE 3 10.00 Fair CLR 62.6 60.8 94% 29.9 0.0
02 05:35 NE 5 10.00 Partly Cloudy SCT110 64.4 62.6 94% 29.9 0.0
02 05:15 Calm 10.00 Partly Cloudy SCT090 64.4 62.6 94% 29.92 0.0
02 04:55 Calm 10.00 Mostly Cloudy BKN090 64.4 62.6 94% 29.92 0.0
02 04:35 Calm 10.00 Partly Cloudy SCT110 64.4 62.6 94% 29.92 0.0
02 04:15 N 3 10.00 Mostly Cloudy BKN110 66.2 62.6 88% 29.92 0.0
02 03:55 NW 5 10.00 Partly Cloudy SCT060 SCT110 64.4 62.6 94% 29.92 0.0
02 03:35 Calm 10.00 Fair CLR 64.4 62.6 94% 29.91 0.0
02 03:15 Calm 10.00 Fair CLR 64.4 62.6 94% 29.92 0.0
02 02:55 Calm 10.00 Fair CLR 64.4 62.6 94% 29.92 0.0
02 02:35 NE 3 10.00 Fair CLR 64.4 62.6 94% 29.92 0.0
02 02:15 E 6 10.00 Fair CLR 66.2 62.6 88% 29.89 0.0
02 01:55 NE 6 10.00 Partly Cloudy SCT050 SCT070 66.2 62.6 88% 29.89 0.0
02 01:35 Calm 10.00 Mostly Cloudy SCT050 BKN070 BKN090 68 62.6 83% 29.9 0.0
02 01:15 SE 5 10.00 Overcast BKN049 BKN060 OVC090 68 62.6 83% 29.91 0.0
02 00:55 SE 5 10.00 Mostly Cloudy BKN047 68 62.6 83% 29.91 0.0
02 00:35 NE 5 10.00 Partly Cloudy SCT060 68 62.6 83% 29.9 0.0
02 00:15 NE 6 10.00 Fair CLR 68 60.8 78% 29.9 0.0
01 23:55 E 6 10.00 Fair CLR 69.8 57.2 64% 29.9 0.0
01 23:35 NE 12 10.00 Partly Cloudy SCT110 69.8 62.6 78% 29.91 0.0
01 23:15 E 3 10.00 Light Drizzle SCT110 68 66.2 94% 29.94 0.0
01 22:55 Calm 10.00 Light Rain CLR 69.8 64.4 83% 29.95 0.0
01 22:35 N 3 10.00 Light Rain CLR 69.8 66.2 88% 29.94 0.0
01 22:15 Calm 10.00 Partly Cloudy SCT120 71.6 66.2 83% 29.95 0.0
01 21:55 Calm 10.00 Light Drizzle SCT120 69.8 66.2 88% 29.94 0.0
01 21:35 Calm 10.00 Light Drizzle CLR 71.6 66.2 83% 29.93 0.0
01 21:15 NE 3 10.00 Light Rain CLR 69.8 66.2 88% 29.92 0.0
01 20:55 Calm 10.00 Light Drizzle CLR 69.8 68 94% 29.93 0.0
01 20:35 Calm 10.00 Light Rain CLR 71.6 68 88% 29.95 0.0
01 20:15 NE 3 10.00 Fair CLR 71.6 66.2 83% 29.92 0.0
01 19:55 E 3 10.00 Light Rain CLR 71.6 68 88% 29.92 0.0
Date Time (cdt) Wind (mph) Vis. (mi.) Weather Sky Cond. Air Dwpt Max. Min. Relative Humidity Wind Chill (°F) Heat Index (°F) altimeter (in) sea level (mb) 1 hr 3 hr 6 hr
6 hour
Temperature (ºF) Pressure Precipitation (in)